Columbia City, Indiana
Current Conditions -  °F | °C
As of 11:54 PM on Thursday 27 Nov 2014 (Local Time) from KFWA Reporting Station
Overcast Overcast  
Wind Chill: 12°   Ceiling: 5000
Heat Index: 23°   Visibility: 10mi
Dew Point: 18°   Wind: 10mph
Humidity: 81%   Direction: 270°W
Pressure: 30.37"   Gusts: NA
Location:  41.16°N, 85.49°W
Report Text: KFWA 280454Z 27009KT 10SM OVC050 M05/M08 A3037 RMK AO2 SLP296 T10501078 400001050
Loading
Personal Weather Stations






























Interactive Weather Map New forecast layout! Learn more

10-Day Weather Forecast

Advertisements
Track Severe Weather on mobile